Terminal Aerodrome Forecast
Issued by NWS

Home | Current Version | Previous Version | Text Only | Print | Product List | Glossary On
Versions: 1 2 3 4 5 6 7 8 9 10 11 12 13 14 15 16
000
FTUS42 TJSJ 112100 AAA
TAFJMZ
TAF AMD
TJMZ 112144Z 1122/1218 07006KT P6SM FEW030
     FM121500 25008KT P6SM SCT030
      AMD NOT SKED 1123/1216=

USA.gov is the U.S. government's official web portal to all federal, state and local government web resources and services.